createdAt,value
2023-01-24T00:00:44.205Z,85.76
2023-01-24T00:03:13.680Z,85.57
2023-01-24T00:05:41.728Z,85.75
2023-01-24T00:08:09.252Z,85.65
2023-01-24T00:10:37.353Z,85.73
2023-01-24T00:13:04.509Z,86.00
2023-01-24T00:15:31.763Z,86.06
2023-01-24T00:17:59.215Z,86.15
2023-01-24T00:20:26.352Z,86.05
2023-01-24T00:22:53.428Z,85.92
2023-01-24T00:25:20.703Z,86.06
2023-01-24T00:27:47.955Z,85.87
2023-01-24T00:30:15.000Z,85.98
2023-01-24T00:32:42.156Z,86.06
2023-01-24T00:35:09.756Z,86.21
2023-01-24T00:37:36.874Z,86.47
2023-01-24T00:40:04.076Z,86.75
2023-01-24T00:42:31.035Z,86.61
2023-01-24T00:44:58.562Z,86.66
2023-01-24T00:47:26.687Z,86.83
2023-01-24T00:49:53.632Z,87.01
2023-01-24T00:52:20.640Z,87.13
2023-01-24T00:54:49.203Z,87.31
2023-01-24T00:57:16.217Z,87.33
2023-01-24T00:59:43.445Z,87.24
2023-01-24T01:02:14.684Z,87.27
2023-01-24T01:04:44.173Z,87.23
2023-01-24T01:07:14.728Z,86.81
2023-01-24T01:09:42.747Z,86.92
2023-01-24T01:12:11.047Z,87.09
2023-01-24T01:14:38.320Z,87.31
2023-01-24T01:17:06.876Z,87.19
2023-01-24T01:19:34.083Z,87.14
2023-01-24T01:22:02.236Z,86.99
2023-01-24T01:24:30.874Z,86.62
2023-01-24T01:26:59.109Z,86.91
2023-01-24T01:29:26.154Z,86.72
2023-01-24T01:31:53.308Z,86.61
2023-01-24T01:34:20.510Z,87.11
2023-01-24T01:36:47.666Z,86.85
2023-01-24T01:39:14.756Z,86.99
2023-01-24T01:41:41.723Z,86.78
2023-01-24T01:44:39.196Z,86.90
2023-01-24T01:47:25.438Z,86.79
2023-01-24T01:50:11.287Z,86.92
2023-01-24T01:52:40.253Z,86.89
2023-01-24T01:55:20.123Z,87.00
2023-01-24T01:57:49.167Z,87.04
2023-01-24T02:00:22.378Z,87.18
2023-01-24T02:02:52.500Z,87.42
2023-01-24T02:05:22.304Z,87.60
2023-01-24T02:07:57.883Z,87.89
2023-01-24T02:10:25.926Z,87.62
2023-01-24T02:12:54.997Z,87.89
2023-01-24T02:15:42.349Z,87.65
2023-01-24T02:18:11.500Z,87.92
2023-01-24T02:20:42.264Z,87.92
2023-01-24T02:23:12.663Z,87.51
2023-01-24T02:25:58.673Z,87.63
2023-01-24T02:28:27.771Z,87.62
2023-01-24T02:30:58.417Z,87.51
2023-01-24T02:33:25.944Z,87.48
2023-01-24T02:36:16.847Z,87.31
2023-01-24T02:38:47.507Z,87.36
2023-01-24T02:41:17.607Z,87.51
2023-01-24T02:43:47.512Z,87.64
2023-01-24T02:46:14.729Z,87.65
2023-01-24T02:48:41.731Z,87.92
2023-01-24T02:51:27.351Z,87.65
2023-01-24T02:53:54.443Z,87.91
2023-01-24T02:56:40.077Z,87.87
2023-01-24T02:59:07.149Z,87.71
2023-01-24T03:01:36.253Z,87.88
2023-01-24T03:04:03.496Z,87.74
2023-01-24T03:06:33.359Z,87.38
2023-01-24T03:09:00.329Z,87.45
2023-01-24T03:11:35.520Z,87.68
2023-01-24T03:14:20.947Z,87.15
2023-01-24T03:17:06.334Z,87.56
2023-01-24T03:19:52.792Z,87.62
2023-01-24T03:22:39.239Z,87.48
2023-01-24T03:25:25.068Z,87.81
2023-01-24T03:28:11.603Z,87.93
2023-01-24T03:30:57.571Z,87.88
2023-01-24T03:33:48.515Z,88.05
2023-01-24T03:36:20.837Z,88.22
2023-01-24T03:39:12.409Z,88.44
2023-01-24T03:41:39.559Z,88.75
2023-01-24T03:44:06.927Z,88.60
2023-01-24T03:46:34.772Z,88.47
2023-01-24T03:49:01.721Z,88.64
2023-01-24T03:51:52.593Z,88.67
2023-01-24T03:54:20.656Z,89.15
2023-01-24T03:57:03.746Z,89.13
2023-01-24T03:59:31.533Z,89.25
2023-01-24T04:01:58.891Z,89.46
2023-01-24T04:04:50.737Z,89.05
2023-01-24T04:07:26.550Z,89.18
2023-01-24T04:10:04.478Z,89.11
2023-01-24T04:12:37.842Z,89.27
2023-01-24T04:15:06.065Z,89.17
2023-01-24T04:17:34.333Z,89.15
2023-01-24T04:20:04.289Z,89.51
2023-01-24T04:22:31.689Z,89.14
2023-01-24T04:25:01.058Z,88.98
2023-01-24T04:27:32.625Z,89.04
2023-01-24T04:30:08.272Z,89.01
2023-01-24T04:32:37.540Z,89.14
2023-01-24T04:35:27.744Z,89.31
2023-01-24T04:38:01.442Z,89.48
2023-01-24T04:41:01.235Z,89.57
2023-01-24T04:43:32.333Z,89.52
2023-01-24T04:45:59.763Z,89.63
2023-01-24T04:48:44.110Z,89.74
2023-01-24T04:51:11.171Z,90.38
2023-01-24T04:53:42.416Z,90.61
2023-01-24T04:56:12.433Z,90.70
2023-01-24T04:58:39.936Z,90.94
2023-01-24T05:01:09.982Z,91.40
2023-01-24T05:03:47.701Z,91.69
2023-01-24T05:06:14.882Z,92.09
2023-01-24T05:08:41.927Z,92.25
2023-01-24T05:11:09.339Z,92.77
2023-01-24T05:13:43.369Z,93.08
2023-01-24T05:16:11.902Z,92.97
2023-01-24T05:18:39.604Z,93.17
2023-01-24T05:21:12.521Z,93.50
2023-01-24T05:23:40.394Z,93.55
2023-01-24T05:26:07.945Z,93.92
2023-01-24T05:28:35.323Z,93.89
2023-01-24T05:31:04.897Z,94.04
2023-01-24T05:33:32.298Z,94.05
2023-01-24T05:36:07.767Z,94.21
2023-01-24T05:38:37.294Z,94.43
2023-01-24T05:41:06.893Z,94.83
2023-01-24T05:43:35.533Z,94.89
2023-01-24T05:46:05.724Z,94.93
2023-01-24T05:48:37.460Z,94.92
2023-01-24T05:51:07.386Z,94.83
2023-01-24T05:53:37.182Z,94.61
2023-01-24T05:56:14.357Z,94.99
2023-01-24T05:58:42.915Z,95.05
2023-01-24T06:01:22.388Z,95.13
2023-01-24T06:03:52.797Z,95.09
2023-01-24T06:06:22.214Z,94.79
2023-01-24T06:08:55.939Z,94.30
2023-01-24T06:11:27.076Z,94.04
2023-01-24T06:14:05.543Z,93.73
2023-01-24T06:16:32.678Z,93.41
2023-01-24T06:19:00.747Z,93.03
2023-01-24T06:21:50.485Z,92.45
2023-01-24T06:24:27.589Z,92.27
2023-01-24T06:27:10.417Z,91.66
2023-01-24T06:29:37.770Z,91.63
2023-01-24T06:32:07.534Z,91.45
2023-01-24T06:34:43.243Z,90.98
2023-01-24T06:37:22.992Z,90.61
2023-01-24T06:39:53.847Z,89.99
2023-01-24T06:42:22.502Z,90.00
2023-01-24T06:44:49.595Z,89.85
2023-01-24T06:47:16.883Z,89.76
2023-01-24T06:49:44.254Z,89.85
2023-01-24T06:52:12.723Z,89.82
2023-01-24T06:54:39.821Z,89.92
2023-01-24T06:57:07.342Z,89.90
2023-01-24T06:59:34.281Z,89.74
2023-01-24T07:02:01.320Z,89.90
2023-01-24T07:04:28.280Z,89.88
2023-01-24T07:06:55.267Z,89.51
2023-01-24T07:09:22.931Z,89.56
2023-01-24T07:11:53.558Z,88.94
2023-01-24T07:14:20.953Z,88.18
2023-01-24T07:16:49.337Z,87.86
2023-01-24T07:19:21.501Z,87.48
2023-01-24T07:21:50.386Z,86.87
2023-01-24T07:24:19.305Z,86.44
2023-01-24T07:26:46.673Z,86.08
2023-01-24T07:29:13.762Z,85.95
2023-01-24T07:31:41.159Z,85.17
2023-01-24T07:34:08.103Z,85.44
2023-01-24T07:36:35.080Z,85.67
2023-01-24T07:39:02.602Z,86.11
2023-01-24T07:41:29.645Z,86.40
2023-01-24T07:43:59.999Z,86.27
2023-01-24T07:46:26.977Z,86.28
2023-01-24T07:48:53.893Z,86.38
2023-01-24T07:51:21.540Z,86.16
2023-01-24T07:53:49.125Z,86.23
2023-01-24T07:56:25.575Z,85.97
2023-01-24T07:58:53.212Z,85.79
2023-01-24T08:01:21.161Z,85.39
2023-01-24T08:03:50.371Z,85.65
2023-01-24T08:06:18.783Z,85.73
2023-01-24T08:08:45.778Z,85.61
2023-01-24T08:11:16.921Z,85.82
2023-01-24T08:13:44.794Z,86.07
2023-01-24T08:16:11.962Z,86.08
2023-01-24T08:18:39.684Z,85.91
2023-01-24T08:21:09.259Z,85.85
2023-01-24T08:23:36.795Z,85.89
2023-01-24T08:26:06.859Z,85.78
2023-01-24T08:28:34.947Z,85.34
2023-01-24T08:31:01.985Z,85.07
2023-01-24T08:33:29.055Z,85.19
2023-01-24T08:35:56.117Z,85.27
2023-01-24T08:38:24.021Z,84.99
2023-01-24T08:40:51.203Z,84.84
2023-01-24T08:43:18.634Z,84.70
2023-01-24T08:45:45.845Z,84.58
2023-01-24T08:48:12.861Z,84.78
2023-01-24T08:50:39.897Z,84.41
2023-01-24T08:53:06.963Z,84.40
2023-01-24T08:55:34.049Z,83.97
2023-01-24T08:58:05.612Z,83.58
2023-01-24T09:00:33.214Z,83.14
2023-01-24T09:03:01.908Z,82.76
2023-01-24T09:05:30.168Z,82.65
2023-01-24T09:07:57.727Z,82.43
2023-01-24T09:10:24.764Z,82.03
2023-01-24T09:12:52.132Z,81.70
2023-01-24T09:15:19.265Z,81.61
2023-01-24T09:17:46.374Z,81.79
2023-01-24T09:20:14.139Z,81.40
2023-01-24T09:22:42.014Z,81.14
2023-01-24T09:25:10.012Z,80.84
2023-01-24T09:27:38.111Z,81.17
2023-01-24T09:30:06.332Z,80.89
2023-01-24T09:32:33.473Z,81.05
2023-01-24T09:35:00.456Z,80.32
2023-01-24T09:37:27.963Z,79.98
2023-01-24T09:39:57.171Z,80.76
2023-01-24T09:42:28.904Z,80.68
2023-01-24T09:45:11.954Z,80.30
2023-01-24T09:48:04.093Z,79.64
2023-01-24T09:50:46.785Z,80.35
2023-01-24T09:53:23.009Z,80.26
2023-01-24T09:55:50.425Z,80.94
2023-01-24T09:58:41.284Z,81.02
2023-01-24T10:01:13.887Z,81.14
2023-01-24T10:03:41.996Z,81.04
2023-01-24T10:06:23.885Z,80.81
2023-01-24T10:08:53.820Z,81.26
2023-01-24T10:11:39.039Z,80.86
2023-01-24T10:14:32.046Z,80.80
2023-01-24T10:17:23.526Z,80.39
2023-01-24T10:20:12.189Z,80.13
2023-01-24T10:23:05.828Z,80.20
2023-01-24T10:26:11.293Z,80.28
2023-01-24T10:28:42.287Z,80.07
2023-01-24T10:31:13.405Z,79.73
2023-01-24T10:33:50.431Z,79.94
2023-01-24T10:36:32.076Z,79.87
2023-01-24T10:38:59.161Z,79.82
2023-01-24T10:41:27.664Z,80.31
2023-01-24T10:44:04.695Z,80.77
2023-01-24T10:46:50.269Z,80.62
2023-01-24T10:49:21.884Z,80.56
2023-01-24T10:52:09.025Z,80.52
2023-01-24T10:54:44.580Z,80.28
2023-01-24T10:57:59.655Z,80.46
2023-01-24T11:00:36.766Z,80.67
2023-01-24T11:03:19.520Z,80.53
2023-01-24T11:05:55.842Z,80.16
2023-01-24T11:08:26.427Z,80.10
2023-01-24T11:10:55.404Z,79.95
2023-01-24T11:13:38.238Z,80.10
2023-01-24T11:16:07.063Z,80.04
2023-01-24T11:18:34.852Z,79.82
2023-01-24T11:21:10.363Z,80.08
2023-01-24T11:23:37.528Z,80.11
2023-01-24T11:26:06.878Z,79.98
2023-01-24T11:28:36.795Z,79.74
2023-01-24T11:31:24.088Z,79.77
2023-01-24T11:34:04.847Z,79.44
2023-01-24T11:36:42.520Z,79.56
2023-01-24T11:39:37.852Z,79.40
2023-01-24T11:42:17.677Z,79.23
2023-01-24T11:45:23.444Z,79.26
2023-01-24T11:48:08.774Z,78.74
2023-01-24T11:50:45.033Z,78.86
2023-01-24T11:53:21.752Z,79.09
2023-01-24T11:56:11.183Z,79.64
2023-01-24T11:59:15.797Z,79.22
2023-01-24T12:02:21.697Z,79.14
2023-01-24T12:05:07.537Z,78.71
2023-01-24T12:07:51.226Z,79.00
2023-01-24T12:11:14.774Z,79.34
2023-01-24T12:14:02.021Z,79.14
2023-01-24T12:17:27.186Z,79.38
2023-01-24T12:20:29.104Z,79.74
2023-01-24T12:23:02.838Z,79.67
2023-01-24T12:25:34.910Z,79.70
2023-01-24T12:28:08.480Z,80.01
2023-01-24T12:30:55.252Z,80.08
2023-01-24T12:33:33.563Z,80.25
2023-01-24T12:36:10.110Z,80.09
2023-01-24T12:38:45.706Z,80.34
2023-01-24T12:41:35.335Z,80.62
2023-01-24T12:44:11.778Z,80.66
2023-01-24T12:47:07.262Z,81.02
2023-01-24T12:49:44.617Z,81.33
2023-01-24T12:52:29.201Z,81.33
2023-01-24T12:55:09.942Z,81.15
2023-01-24T12:57:40.077Z,81.28
2023-01-24T13:00:17.900Z,81.37
2023-01-24T13:02:54.988Z,80.87
2023-01-24T13:05:30.029Z,81.25
2023-01-24T13:08:04.420Z,81.45
2023-01-24T13:11:08.531Z,81.74
2023-01-24T13:13:41.695Z,81.85
2023-01-24T13:16:41.313Z,81.73
2023-01-24T13:19:38.076Z,82.31
2023-01-24T13:22:43.827Z,82.32
2023-01-24T13:25:23.771Z,82.72
2023-01-24T13:28:00.498Z,82.72
2023-01-24T13:30:36.546Z,82.91
2023-01-24T13:33:06.648Z,83.16
2023-01-24T13:35:33.872Z,83.27
2023-01-24T13:38:26.505Z,83.23
2023-01-24T13:41:03.973Z,83.35
2023-01-24T13:43:52.612Z,83.65
2023-01-24T13:46:20.144Z,83.79
2023-01-24T13:48:55.071Z,83.98
2023-01-24T13:51:22.128Z,83.72
2023-01-24T13:54:14.088Z,84.11
2023-01-24T13:57:23.461Z,84.31
2023-01-24T14:00:18.422Z,84.26
2023-01-24T14:02:51.138Z,84.32
2023-01-24T14:05:30.015Z,84.38
2023-01-24T14:08:03.214Z,84.34
2023-01-24T14:10:41.531Z,84.30
2023-01-24T14:13:45.799Z,84.18
2023-01-24T14:16:16.861Z,84.22
2023-01-24T14:18:48.864Z,84.37
2023-01-24T14:21:22.062Z,84.45
2023-01-24T14:23:52.092Z,84.49
2023-01-24T14:26:22.559Z,84.61
2023-01-24T14:28:56.483Z,84.49
2023-01-24T14:31:32.558Z,84.71
2023-01-24T14:34:07.297Z,84.63
2023-01-24T14:36:40.063Z,84.63
2023-01-24T14:39:24.896Z,84.73
2023-01-24T14:41:55.307Z,84.76
2023-01-24T14:44:25.458Z,84.99
2023-01-24T14:47:17.360Z,85.19
2023-01-24T14:49:48.623Z,85.13
2023-01-24T14:52:24.679Z,85.53
2023-01-24T14:54:59.826Z,85.07
2023-01-24T14:57:32.302Z,85.10
2023-01-24T15:00:17.075Z,85.24
2023-01-24T15:03:02.859Z,85.33
2023-01-24T15:05:33.913Z,85.11
2023-01-24T15:08:02.498Z,85.23
2023-01-24T15:10:32.657Z,85.11
2023-01-24T15:13:02.117Z,85.26
2023-01-24T15:15:29.577Z,85.51
2023-01-24T15:18:02.577Z,85.51
2023-01-24T15:20:31.525Z,85.47
2023-01-24T15:23:01.480Z,85.36
2023-01-24T15:25:34.003Z,85.54
2023-01-24T15:28:22.137Z,85.48
2023-01-24T15:30:59.942Z,85.77
2023-01-24T15:33:40.724Z,85.87
2023-01-24T15:36:26.961Z,85.91
2023-01-24T15:38:56.360Z,86.03
2023-01-24T15:41:57.564Z,86.23
2023-01-24T15:44:24.739Z,86.02
2023-01-24T15:47:15.965Z,86.41
2023-01-24T15:50:36.481Z,86.56
2023-01-24T15:53:13.219Z,86.71
2023-01-24T15:55:41.854Z,86.63
2023-01-24T15:58:10.562Z,86.87
2023-01-24T16:00:38.249Z,86.82
2023-01-24T16:03:05.932Z,86.78
2023-01-24T16:05:33.962Z,86.77
2023-01-24T16:08:01.404Z,86.73
2023-01-24T16:10:28.895Z,86.80
2023-01-24T16:12:56.349Z,86.57
2023-01-24T16:15:23.498Z,86.63
2023-01-24T16:17:51.250Z,86.90
2023-01-24T16:20:19.681Z,86.68
2023-01-24T16:22:47.357Z,86.73
2023-01-24T16:25:15.539Z,86.66
2023-01-24T16:27:43.016Z,87.02
2023-01-24T16:30:22.580Z,87.32
2023-01-24T16:32:49.883Z,87.19
2023-01-24T16:35:17.653Z,87.14
2023-01-24T16:37:45.438Z,87.06
2023-01-24T16:40:15.718Z,87.26
2023-01-24T16:42:44.777Z,87.17
2023-01-24T16:45:20.365Z,87.19
2023-01-24T16:47:47.697Z,87.21
2023-01-24T16:50:17.693Z,87.00
2023-01-24T16:52:46.722Z,87.01
2023-01-24T16:55:14.219Z,87.27
2023-01-24T16:57:41.594Z,87.30
2023-01-24T17:00:14.543Z,87.42
2023-01-24T17:02:45.610Z,87.41
2023-01-24T17:05:13.258Z,87.64
2023-01-24T17:07:40.998Z,87.62
2023-01-24T17:10:09.259Z,87.48
2023-01-24T17:12:46.311Z,87.60
2023-01-24T17:15:13.779Z,87.36
2023-01-24T17:17:59.070Z,87.62
2023-01-24T17:20:29.898Z,87.76
2023-01-24T17:23:05.909Z,87.55
2023-01-24T17:25:40.934Z,87.74
2023-01-24T17:28:25.217Z,87.58
2023-01-24T17:30:53.348Z,87.81
2023-01-24T17:33:20.365Z,87.94
2023-01-24T17:35:53.660Z,87.96
2023-01-24T17:38:26.940Z,87.97
2023-01-24T17:40:54.095Z,88.11
2023-01-24T17:43:21.208Z,88.43
2023-01-24T17:46:10.372Z,88.31
2023-01-24T17:48:38.489Z,88.13
2023-01-24T17:51:20.498Z,88.23
2023-01-24T17:53:48.231Z,88.20
2023-01-24T17:56:18.811Z,88.42
2023-01-24T17:58:49.306Z,88.48
2023-01-24T18:01:16.445Z,88.14
2023-01-24T18:03:45.340Z,88.12
2023-01-24T18:06:13.727Z,88.19
2023-01-24T18:08:57.927Z,88.07
2023-01-24T18:11:29.348Z,88.21
2023-01-24T18:14:14.523Z,88.02
2023-01-24T18:16:44.839Z,88.21
2023-01-24T18:19:25.519Z,88.28
2023-01-24T18:21:55.917Z,88.19
2023-01-24T18:24:37.032Z,88.11
2023-01-24T18:27:04.417Z,88.07
2023-01-24T18:29:32.202Z,88.20
2023-01-24T18:31:59.802Z,88.73
2023-01-24T18:34:26.991Z,88.11
2023-01-24T18:37:00.531Z,88.30
2023-01-24T18:39:28.236Z,88.27
2023-01-24T18:42:01.604Z,88.06
2023-01-24T18:44:31.636Z,88.31
2023-01-24T18:46:58.630Z,88.05
2023-01-24T18:49:25.892Z,87.99
2023-01-24T18:51:52.872Z,87.99
2023-01-24T18:54:26.841Z,88.21
2023-01-24T18:56:56.902Z,88.21
2023-01-24T18:59:29.289Z,88.18
2023-01-24T19:02:07.135Z,88.26
2023-01-24T19:04:34.426Z,88.65
2023-01-24T19:07:03.138Z,88.59
2023-01-24T19:09:31.213Z,88.71
2023-01-24T19:12:03.729Z,88.73
2023-01-24T19:14:31.788Z,88.57
2023-01-24T19:17:17.188Z,88.74
2023-01-24T19:19:44.339Z,88.69
2023-01-24T19:22:12.171Z,88.58
2023-01-24T19:24:39.206Z,88.64
2023-01-24T19:27:06.162Z,88.65
2023-01-24T19:29:38.649Z,88.85
2023-01-24T19:32:08.585Z,88.84
2023-01-24T19:34:35.669Z,88.81
2023-01-24T19:37:02.680Z,88.90
2023-01-24T19:39:29.725Z,89.00
2023-01-24T19:41:56.740Z,89.02
2023-01-24T19:44:26.024Z,89.07
2023-01-24T19:46:53.000Z,88.90
2023-01-24T19:49:20.469Z,89.18
2023-01-24T19:51:47.555Z,89.14
2023-01-24T19:54:14.715Z,89.15
2023-01-24T19:56:41.762Z,89.31
2023-01-24T19:59:08.756Z,89.46
2023-01-24T20:01:35.768Z,89.56
2023-01-24T20:04:21.953Z,89.50
2023-01-24T20:06:50.734Z,89.55
2023-01-24T20:09:17.757Z,89.61
2023-01-24T20:11:45.878Z,89.76
2023-01-24T20:14:12.871Z,89.70
2023-01-24T20:16:39.969Z,89.96
2023-01-24T20:19:10.861Z,90.10
2023-01-24T20:21:44.282Z,90.03
2023-01-24T20:24:13.411Z,90.40
2023-01-24T20:26:40.840Z,90.66
2023-01-24T20:29:13.195Z,90.24
2023-01-24T20:31:40.341Z,90.42
2023-01-24T20:34:07.880Z,90.68
2023-01-24T20:36:35.372Z,90.46
2023-01-24T20:39:02.439Z,90.68
2023-01-24T20:41:36.172Z,90.86
2023-01-24T20:44:04.032Z,90.88
2023-01-24T20:46:31.306Z,91.11
2023-01-24T20:48:59.781Z,91.21
2023-01-24T20:51:29.428Z,91.38
2023-01-24T20:54:00.908Z,91.30
2023-01-24T20:56:28.759Z,91.07
2023-01-24T20:58:57.819Z,90.99
2023-01-24T21:01:26.303Z,91.09
2023-01-24T21:03:59.461Z,91.11
2023-01-24T21:06:26.591Z,91.26
2023-01-24T21:08:53.920Z,91.35
2023-01-24T21:11:23.570Z,91.51
2023-01-24T21:13:53.187Z,91.58
2023-01-24T21:16:20.996Z,91.34
2023-01-24T21:18:53.269Z,91.43
2023-01-24T21:21:23.029Z,91.60
2023-01-24T21:23:50.262Z,91.69
2023-01-24T21:26:17.929Z,91.63
2023-01-24T21:28:48.501Z,91.58
2023-01-24T21:31:18.777Z,91.60
2023-01-24T21:33:46.064Z,91.55
2023-01-24T21:36:17.322Z,91.45
2023-01-24T21:38:45.015Z,91.53
2023-01-24T21:41:32.799Z,91.21
2023-01-24T21:44:00.089Z,91.55
2023-01-24T21:46:27.355Z,90.98
2023-01-24T21:49:06.895Z,91.30
2023-01-24T21:51:41.230Z,91.51
2023-01-24T21:54:22.886Z,91.62
2023-01-24T21:57:28.082Z,91.66
2023-01-24T21:59:58.173Z,91.50
2023-01-24T22:02:32.261Z,91.52
2023-01-24T22:05:01.163Z,91.46
2023-01-24T22:07:32.088Z,91.46
2023-01-24T22:10:01.124Z,91.46
2023-01-24T22:12:33.493Z,91.35
2023-01-24T22:15:00.762Z,91.30
2023-01-24T22:17:27.915Z,91.51
2023-01-24T22:19:56.813Z,91.73
2023-01-24T22:22:38.502Z,91.47
2023-01-24T22:25:11.341Z,91.72
2023-01-24T22:27:38.659Z,91.75
2023-01-24T22:30:17.700Z,91.76
2023-01-24T22:32:45.529Z,91.36
2023-01-24T22:35:16.996Z,91.39
2023-01-24T22:37:49.861Z,91.52
2023-01-24T22:40:18.818Z,91.22
2023-01-24T22:42:45.987Z,91.22
2023-01-24T22:45:13.126Z,91.32
2023-01-24T22:47:40.039Z,91.54
2023-01-24T22:50:07.534Z,91.74
2023-01-24T22:52:35.401Z,91.63
2023-01-24T22:55:02.952Z,91.79
2023-01-24T22:57:31.270Z,91.70
2023-01-24T22:59:58.332Z,91.55
2023-01-24T23:02:28.010Z,91.73
2023-01-24T23:04:57.179Z,91.56
2023-01-24T23:07:24.139Z,91.95
2023-01-24T23:09:51.283Z,92.00
2023-01-24T23:12:37.368Z,91.91
2023-01-24T23:15:23.495Z,91.96
2023-01-24T23:17:52.270Z,92.14
2023-01-24T23:20:37.687Z,91.88
2023-01-24T23:23:04.692Z,91.98
2023-01-24T23:25:31.790Z,92.04
2023-01-24T23:27:58.718Z,92.16
2023-01-24T23:30:46.059Z,92.31
2023-01-24T23:33:32.223Z,92.19
2023-01-24T23:36:00.724Z,92.50
2023-01-24T23:38:27.977Z,92.47
2023-01-24T23:40:54.932Z,92.15
2023-01-24T23:43:21.807Z,91.92
2023-01-24T23:45:48.882Z,92.24
2023-01-24T23:48:15.871Z,91.96
2023-01-24T23:50:42.771Z,92.03
2023-01-24T23:53:09.839Z,91.91
2023-01-24T23:55:36.780Z,92.03
2023-01-24T23:58:03.967Z,91.62
